Washington, NJ

7:40 AM EDT on July 29, 2015 (GMT -0400)
Washington Twp | | Change Station
CLOSE
Current Station
Personal Weather Station
Location: Washington, NJ
Elevation: 512 ft
Nearby Weather Stations

Elev 512 ft 40.77 °N, 74.99 °W | Updated 13 minutes ago

Clear
Clear
72.7 °F
Feels Like 72.7 °F
N
0.0
Wind Variable Wind from NW

Today
High -- | Low -- °F
--% Chance of Precip.
Yesterday
High -- | Low -- °F
Precip. -- in
5:53 AM 8:18 PM
Waxing Gibbous, 95% visible
Pressure 29.97 in
Visibility 8.0 miles
Clouds Clear
Dew Point 70 °F
Humidity 91%
Rainfall 0.00 in
Snow Depth Not available.
UV 0 out of 12
Pollen 6.40 out of 12
Air Quality Not available.
Flu Activity Not available.
METAR KSMQ 291053Z AUTO 00000KT 8SM CLR 19/18 A2998 RMK AO2 SLP149 T01940178

More Conditions Fewer Conditions

Pressure 29.97 in
Visibility 8.0 miles
Clouds Clear
Dew Point 70 °F
Humidity 91%
Rainfall 0.00 in
Snow Depth Not available.
UV 0 out of 12
Pollen 6.40 out of 12
Air Quality Not available.
Flu Activity Not available.
METAR KSMQ 291053Z AUTO 00000KT 8SM CLR 19/18 A2998 RMK AO2 SLP149 T01940178

More Conditions Fewer Conditions

10-Day Weather Forecast

×

Almanac

Astronomy

Jul. 29, 2015 Rise Set
Actual Time
Civil Twilight
Nautical Twilight
Astronomical Twilight
Moon
Length of Visible Light
Length of Day
Tomorrow will be .
, % of the Moon is Illuminated

Today's Extremes

State Highs State Lows

Community

WunderPhotos

Upload Photos

1,842,075 photos uploaded!

WunderBlogs® & News

Nearby

Air Quality

  Air Quality AQ Index Pollutant
Not available.

Snow Depth

Station Depth Elevation

Earthquake Activity

City Distance Mag. Time & Date
Minimum magnitude displayed is 2.5.

Coastal Water Temperatures

Place Temperature

Stations

Nearby Weather Stations

Station Location Temp. Windchill Dew Point Humidity Wind Precip. Elev Updated Type